Armstrong, Missouri
Current Conditions -  °F | °C
As of 2:35 AM on Saturday 20 Dec 2014 (Local Time) from KVER Reporting Station
Haze Haze  
Wind Chill: 36°   Ceiling: 400
Heat Index: 36°   Visibility: 1.7mi
Dew Point: 36°   Wind: 3mph
Humidity: 100%   Direction: 120°ESE
Pressure: 30.22"   Gusts: NA
Location:  39.27°N, 92.7°W
Report Text: KVER 200835Z AUTO 12003KT 1 3/4SM BR OVC004 02/02 A3022 RMK AO2 T00210021
Loading
Personal Weather Stations






























Interactive Weather Map New forecast layout! Learn more

10-Day Weather Forecast

Advertisements
Track Severe Weather on mobile